createdAt,value
2024-05-09T00:00:31.649Z,92.14
2024-05-09T00:01:29.045Z,92.24
2024-05-09T00:02:28.086Z,92.14
2024-05-09T00:03:28.103Z,92.14
2024-05-09T00:04:28.035Z,92.04
2024-05-09T00:05:28.057Z,92.04
2024-05-09T00:06:27.987Z,92.04
2024-05-09T00:07:27.945Z,91.94
2024-05-09T00:08:28.040Z,91.83
2024-05-09T00:09:27.929Z,91.83
2024-05-09T00:10:35.308Z,91.94
2024-05-09T00:11:28.971Z,92.04
2024-05-09T00:12:27.934Z,92.04
2024-05-09T00:13:27.896Z,92.04
2024-05-09T00:14:27.937Z,92.24
2024-05-09T00:15:27.877Z,92.35
2024-05-09T00:16:27.864Z,92.45
2024-05-09T00:17:27.961Z,92.45
2024-05-09T00:18:28.030Z,92.45
2024-05-09T00:19:27.876Z,92.45
2024-05-09T00:20:36.007Z,92.55
2024-05-09T00:21:28.827Z,92.65
2024-05-09T00:22:27.800Z,92.55
2024-05-09T00:23:27.829Z,92.65
2024-05-09T00:24:27.770Z,92.65
2024-05-09T00:25:27.759Z,92.65
2024-05-09T00:26:27.875Z,92.65
2024-05-09T00:27:27.736Z,92.65
2024-05-09T00:28:27.733Z,92.55
2024-05-09T00:29:27.796Z,92.55
2024-05-09T00:30:33.790Z,92.55
2024-05-09T00:31:28.701Z,92.49
2024-05-09T00:32:27.807Z,92.39
2024-05-09T00:33:27.927Z,92.29
2024-05-09T00:34:27.764Z,92.29
2024-05-09T00:35:27.783Z,92.49
2024-05-09T00:36:27.646Z,92.49
2024-05-09T00:37:27.634Z,92.49
2024-05-09T00:38:27.703Z,92.49
2024-05-09T00:39:27.611Z,92.49
2024-05-09T00:40:37.236Z,92.59
2024-05-09T00:41:28.628Z,92.94
2024-05-09T00:42:27.592Z,93.15
2024-05-09T00:43:27.576Z,93.25
2024-05-09T00:44:27.705Z,93.35
2024-05-09T00:45:27.544Z,93.35
2024-05-09T00:46:27.546Z,93.15
2024-05-09T00:47:27.683Z,93.05
2024-05-09T00:48:27.733Z,93.05
2024-05-09T00:49:27.558Z,93.05
2024-05-09T00:50:35.535Z,93.05
2024-05-09T00:51:28.475Z,92.94
2024-05-09T00:52:27.463Z,92.84
2024-05-09T00:53:27.579Z,92.84
2024-05-09T00:54:27.494Z,92.74
2024-05-09T00:55:27.432Z,92.84
2024-05-09T00:56:27.561Z,93.15
2024-05-09T00:57:27.412Z,93.29
2024-05-09T00:58:27.428Z,93.40
2024-05-09T00:59:27.504Z,93.50
2024-05-09T01:00:35.558Z,93.40
2024-05-09T01:01:28.414Z,93.50
2024-05-09T01:02:27.492Z,93.60
2024-05-09T01:03:27.868Z,93.60
2024-05-09T01:04:27.383Z,93.60
2024-05-09T01:05:27.446Z,93.60
2024-05-09T01:06:27.339Z,93.65
2024-05-09T01:07:27.308Z,93.65
2024-05-09T01:08:27.411Z,93.74
2024-05-09T01:09:27.303Z,93.74
2024-05-09T01:10:33.735Z,93.74
2024-05-09T01:11:28.333Z,93.85
2024-05-09T01:12:27.432Z,93.85
2024-05-09T01:13:27.255Z,93.85
2024-05-09T01:14:27.371Z,93.74
2024-05-09T01:15:27.222Z,93.74
2024-05-09T01:16:27.212Z,93.65
2024-05-09T01:17:27.359Z,93.65
2024-05-09T01:18:27.322Z,93.54
2024-05-09T01:19:27.302Z,93.48
2024-05-09T01:20:36.814Z,93.38
2024-05-09T01:21:28.167Z,93.79
2024-05-09T01:22:27.159Z,93.89
2024-05-09T01:23:27.169Z,93.79
2024-05-09T01:24:27.142Z,93.69
2024-05-09T01:25:27.141Z,93.69
2024-05-09T01:26:27.155Z,93.69
2024-05-09T01:27:27.097Z,93.59
2024-05-09T01:28:27.093Z,93.59
2024-05-09T01:29:27.171Z,93.48
2024-05-09T01:30:33.882Z,93.38
2024-05-09T01:31:28.049Z,93.38
2024-05-09T01:32:27.204Z,93.59
2024-05-09T01:33:27.384Z,93.69
2024-05-09T01:34:27.048Z,93.79
2024-05-09T01:35:27.136Z,93.89
2024-05-09T01:36:27.000Z,93.89
2024-05-09T01:37:26.985Z,93.89
2024-05-09T01:38:27.044Z,93.93
2024-05-09T01:39:26.969Z,93.93
2024-05-09T01:40:36.316Z,93.93
2024-05-09T01:41:28.077Z,93.93
2024-05-09T01:42:26.951Z,93.93
2024-05-09T01:43:26.948Z,93.93
2024-05-09T01:44:27.007Z,94.04
2024-05-09T01:45:26.903Z,94.04
2024-05-09T01:46:26.909Z,94.14
2024-05-09T01:47:27.144Z,94.04
2024-05-09T01:48:27.078Z,94.04
2024-05-09T01:49:26.964Z,93.84
2024-05-09T01:50:37.407Z,93.84
2024-05-09T01:51:27.830Z,93.73
2024-05-09T01:52:26.825Z,93.63
2024-05-09T01:53:26.840Z,93.52
2024-05-09T01:54:26.820Z,93.63
2024-05-09T01:55:26.786Z,93.77
2024-05-09T01:56:26.785Z,93.67
2024-05-09T01:57:26.772Z,93.67
2024-05-09T01:58:26.794Z,93.77
2024-05-09T01:59:26.894Z,93.88
2024-05-09T02:00:34.507Z,93.98
2024-05-09T02:01:27.864Z,94.18
2024-05-09T02:02:26.817Z,94.29
2024-05-09T02:03:26.860Z,94.39
2024-05-09T02:04:26.833Z,94.39
2024-05-09T02:05:26.751Z,94.29
2024-05-09T02:06:26.679Z,94.08
2024-05-09T02:07:26.662Z,94.12
2024-05-09T02:08:26.728Z,94.23
2024-05-09T02:09:26.663Z,94.23
2024-05-09T02:10:32.308Z,94.23
2024-05-09T02:11:27.669Z,94.23
2024-05-09T02:12:26.699Z,94.33
2024-05-09T02:13:26.611Z,94.43
2024-05-09T02:14:26.855Z,94.64
2024-05-09T02:15:26.605Z,94.64
2024-05-09T02:16:26.576Z,94.84
2024-05-09T02:17:26.797Z,95.15
2024-05-09T02:18:26.669Z,95.25
2024-05-09T02:19:26.653Z,95.36
2024-05-09T02:20:33.852Z,95.36
2024-05-09T02:21:27.565Z,95.25
2024-05-09T02:22:26.506Z,95.15
2024-05-09T02:23:26.564Z,95.15
2024-05-09T02:24:26.503Z,95.15
2024-05-09T02:25:26.473Z,95.25
2024-05-09T02:26:26.536Z,95.25
2024-05-09T02:27:26.452Z,95.15
2024-05-09T02:28:26.440Z,95.15
2024-05-09T02:29:26.634Z,95.05
2024-05-09T02:30:36.186Z,95.05
2024-05-09T02:31:27.404Z,95.05
2024-05-09T02:32:26.522Z,94.95
2024-05-09T02:33:26.684Z,94.74
2024-05-09T02:34:26.469Z,94.74
2024-05-09T02:35:26.727Z,94.68
2024-05-09T02:36:26.365Z,94.68
2024-05-09T02:37:26.345Z,94.58
2024-05-09T02:38:26.390Z,94.48
2024-05-09T02:39:26.325Z,94.37
2024-05-09T02:40:35.399Z,94.27
2024-05-09T02:41:27.456Z,94.17
2024-05-09T02:42:26.295Z,94.07
2024-05-09T02:43:26.274Z,94.27
2024-05-09T02:44:26.366Z,94.37
2024-05-09T02:45:26.250Z,94.68
2024-05-09T02:46:26.282Z,94.99
2024-05-09T02:47:26.350Z,94.99
2024-05-09T02:48:26.402Z,94.99
2024-05-09T02:49:26.327Z,95.09
2024-05-09T02:50:34.168Z,95.29
2024-05-09T02:51:27.193Z,95.40
2024-05-09T02:52:26.185Z,95.40
2024-05-09T02:53:26.233Z,95.20
2024-05-09T02:54:26.166Z,95.03
2024-05-09T02:55:26.141Z,95.14
2024-05-09T02:56:26.219Z,95.44
2024-05-09T02:57:26.123Z,95.65
2024-05-09T02:58:26.119Z,95.75
2024-05-09T02:59:26.335Z,95.86
2024-05-09T03:00:34.809Z,95.86
2024-05-09T03:01:27.119Z,95.86
2024-05-09T03:02:26.120Z,95.86
2024-05-09T03:03:26.538Z,95.86
2024-05-09T03:04:26.088Z,95.86
2024-05-09T03:05:26.101Z,95.95
2024-05-09T03:06:26.038Z,96.16
2024-05-09T03:07:26.040Z,96.26
2024-05-09T03:08:26.083Z,96.37
2024-05-09T03:09:26.007Z,96.26
2024-05-09T03:10:28.945Z,96.06
2024-05-09T03:11:27.144Z,96.06
2024-05-09T03:12:26.022Z,96.06
2024-05-09T03:13:25.956Z,96.26
2024-05-09T03:14:26.068Z,96.37
2024-05-09T03:15:25.935Z,96.37
2024-05-09T03:16:25.918Z,96.47
2024-05-09T03:17:26.060Z,96.37
2024-05-09T03:18:25.952Z,96.37
2024-05-09T03:19:25.974Z,96.37
2024-05-09T03:20:32.558Z,96.37
2024-05-09T03:21:26.881Z,96.37
2024-05-09T03:22:25.856Z,96.31
2024-05-09T03:23:25.926Z,96.20
2024-05-09T03:24:25.836Z,96.10
2024-05-09T03:25:25.845Z,96.00
2024-05-09T03:26:25.927Z,96.20
2024-05-09T03:27:25.808Z,96.31
2024-05-09T03:28:25.839Z,96.31
2024-05-09T03:29:26.010Z,96.20
2024-05-09T03:30:35.614Z,96.20
2024-05-09T03:31:26.765Z,96.20
2024-05-09T03:32:25.892Z,96.10
2024-05-09T03:33:26.317Z,96.10
2024-05-09T03:34:25.775Z,96.00
2024-05-09T03:35:26.828Z,95.90
2024-05-09T03:36:25.705Z,95.79
2024-05-09T03:37:25.703Z,95.69
2024-05-09T03:38:25.854Z,95.69
2024-05-09T03:39:25.680Z,95.84
2024-05-09T03:40:29.027Z,96.04
2024-05-09T03:41:26.722Z,96.15
2024-05-09T03:42:25.660Z,96.15
2024-05-09T03:43:25.654Z,96.25
2024-05-09T03:44:25.802Z,96.35
2024-05-09T03:45:25.614Z,96.45
2024-05-09T03:46:25.608Z,96.56
2024-05-09T03:47:25.804Z,96.66
2024-05-09T03:48:25.774Z,96.56
2024-05-09T03:49:25.772Z,96.56
2024-05-09T03:50:30.413Z,96.35
2024-05-09T03:51:26.557Z,96.25
2024-05-09T03:52:25.547Z,96.04
2024-05-09T03:53:25.588Z,95.94
2024-05-09T03:54:25.569Z,96.04
2024-05-09T03:55:25.507Z,96.04
2024-05-09T03:56:25.572Z,95.94
2024-05-09T03:57:25.499Z,95.94
2024-05-09T03:58:25.475Z,95.84
2024-05-09T03:59:25.628Z,95.84
2024-05-09T04:00:31.761Z,95.94
2024-05-09T04:01:26.507Z,96.15
2024-05-09T04:02:25.548Z,96.35
2024-05-09T04:03:25.651Z,96.25
2024-05-09T04:04:25.491Z,96.15
2024-05-09T04:05:25.504Z,96.15
2024-05-09T04:06:25.412Z,96.15
2024-05-09T04:07:25.386Z,96.15
2024-05-09T04:08:25.396Z,96.15
2024-05-09T04:09:25.382Z,96.15
2024-05-09T04:10:32.336Z,96.25
2024-05-09T04:11:26.402Z,96.25
2024-05-09T04:12:25.370Z,96.25
2024-05-09T04:13:25.320Z,96.15
2024-05-09T04:14:25.329Z,95.94
2024-05-09T04:15:25.296Z,95.98
2024-05-09T04:16:25.293Z,95.89
2024-05-09T04:17:25.419Z,95.89
2024-05-09T04:18:25.377Z,95.98
2024-05-09T04:19:25.350Z,96.09
2024-05-09T04:20:35.884Z,96.09
2024-05-09T04:21:26.231Z,96.15
2024-05-09T04:22:25.213Z,96.15
2024-05-09T04:23:25.247Z,96.04
2024-05-09T04:24:25.208Z,96.04
2024-05-09T04:25:25.187Z,96.04
2024-05-09T04:26:25.274Z,96.15
2024-05-09T04:27:25.162Z,96.25
2024-05-09T04:28:25.156Z,96.45
2024-05-09T04:29:25.323Z,96.66
2024-05-09T04:30:34.576Z,96.66
2024-05-09T04:31:26.142Z,96.77
2024-05-09T04:32:25.227Z,96.77
2024-05-09T04:33:25.598Z,96.77
2024-05-09T04:34:25.200Z,96.77
2024-05-09T04:35:25.162Z,96.77
2024-05-09T04:36:25.073Z,96.66
2024-05-09T04:37:25.094Z,96.66
2024-05-09T04:38:25.088Z,96.66
2024-05-09T04:39:25.046Z,96.66
2024-05-09T04:40:32.700Z,96.66
2024-05-09T04:41:26.069Z,96.66
2024-05-09T04:42:25.007Z,96.66
2024-05-09T04:43:25.027Z,96.77
2024-05-09T04:44:25.014Z,96.66
2024-05-09T04:45:24.993Z,96.77
2024-05-09T04:46:24.962Z,96.77
2024-05-09T04:47:25.213Z,96.77
2024-05-09T04:48:25.133Z,96.66
2024-05-09T04:49:25.122Z,96.66
2024-05-09T04:50:33.288Z,96.66
2024-05-09T04:51:25.922Z,96.66
2024-05-09T04:52:24.910Z,96.66
2024-05-09T04:53:24.947Z,96.77
2024-05-09T04:54:33.736Z,96.87
2024-05-09T04:55:25.877Z,96.97
2024-05-09T04:56:24.912Z,97.07
2024-05-09T04:57:24.859Z,97.17
2024-05-09T04:58:24.836Z,97.17
2024-05-09T04:59:25.003Z,97.28
2024-05-09T05:00:32.600Z,97.28
2024-05-09T05:01:25.851Z,97.38
2024-05-09T05:02:24.894Z,97.48
2024-05-09T05:03:25.061Z,97.58
2024-05-09T05:04:24.819Z,97.58
2024-05-09T05:05:24.814Z,97.69
2024-05-09T05:06:24.755Z,97.64
2024-05-09T05:07:24.756Z,97.64
2024-05-09T05:08:24.798Z,97.54
2024-05-09T05:09:24.721Z,97.54
2024-05-09T05:10:33.053Z,97.44
2024-05-09T05:11:25.769Z,97.33
2024-05-09T05:12:24.742Z,97.33
2024-05-09T05:13:25.294Z,97.44
2024-05-09T05:14:24.699Z,97.44
2024-05-09T05:15:24.661Z,97.54
2024-05-09T05:16:24.652Z,97.64
2024-05-09T05:17:24.786Z,97.74
2024-05-09T05:18:24.918Z,97.85
2024-05-09T05:19:24.767Z,97.95
2024-05-09T05:20:32.541Z,97.95
2024-05-09T05:21:25.759Z,98.05
2024-05-09T05:22:24.594Z,98.05
2024-05-09T05:23:24.766Z,98.16
2024-05-09T05:24:24.556Z,98.36
2024-05-09T05:25:24.556Z,98.32
2024-05-09T05:26:24.574Z,98.42
2024-05-09T05:27:24.526Z,98.52
2024-05-09T05:28:24.528Z,98.52
2024-05-09T05:29:24.594Z,98.52
2024-05-09T05:30:29.119Z,98.52
2024-05-09T05:31:25.551Z,98.52
2024-05-09T05:32:24.726Z,98.52
2024-05-09T05:33:24.647Z,98.52
2024-05-09T05:34:24.468Z,98.42
2024-05-09T05:35:24.593Z,98.37
2024-05-09T05:36:24.458Z,98.27
2024-05-09T05:37:24.432Z,98.27
2024-05-09T05:38:27.488Z,98.27
2024-05-09T05:39:24.405Z,98.27
2024-05-09T05:40:32.704Z,98.27
2024-05-09T05:41:25.469Z,98.27
2024-05-09T05:42:24.373Z,98.27
2024-05-09T05:43:24.366Z,98.27
2024-05-09T05:44:24.373Z,98.27
2024-05-09T05:45:24.342Z,98.37
2024-05-09T05:46:24.346Z,98.37
2024-05-09T05:47:24.484Z,98.47
2024-05-09T05:48:24.593Z,98.47
2024-05-09T05:49:24.456Z,98.47
2024-05-09T05:50:32.260Z,98.58
2024-05-09T05:51:25.311Z,98.74
2024-05-09T05:52:24.285Z,98.74
2024-05-09T05:53:24.326Z,98.94
2024-05-09T05:54:24.240Z,99.04
2024-05-09T05:55:24.279Z,99.04
2024-05-09T05:56:24.251Z,98.94
2024-05-09T05:57:24.223Z,99.04
2024-05-09T05:58:24.196Z,99.15
2024-05-09T05:59:24.256Z,99.45
2024-05-09T06:01:24.265Z,99.71
2024-05-09T06:02:24.192Z,99.71
2024-05-09T06:03:24.214Z,99.71
2024-05-09T06:04:24.206Z,99.71
2024-05-09T06:05:26.040Z,99.61
2024-05-09T06:06:24.122Z,99.51
2024-05-09T06:07:24.108Z,99.51
2024-05-09T06:08:26.189Z,99.51
2024-05-09T06:09:24.082Z,99.51
2024-05-09T06:10:29.664Z,99.56
2024-05-09T06:11:25.241Z,99.56
2024-05-09T06:12:24.162Z,99.56
2024-05-09T06:13:24.057Z,99.46
2024-05-09T06:14:24.146Z,99.46
2024-05-09T06:15:24.020Z,99.46
2024-05-09T06:16:24.006Z,99.46
2024-05-09T06:17:24.152Z,99.36
2024-05-09T06:18:24.326Z,99.36
2024-05-09T06:19:24.258Z,99.36
2024-05-09T06:20:31.949Z,99.36
2024-05-09T06:21:24.988Z,99.41
2024-05-09T06:22:23.946Z,99.41
2024-05-09T06:23:23.963Z,99.41
2024-05-09T06:24:23.926Z,99.41
2024-05-09T06:25:23.914Z,99.41
2024-05-09T06:26:23.963Z,99.31
2024-05-09T06:27:23.897Z,99.31
2024-05-09T06:28:23.876Z,99.31
2024-05-09T06:29:23.981Z,99.31
2024-05-09T06:30:30.566Z,99.31
2024-05-09T06:31:24.863Z,99.21
2024-05-09T06:32:23.945Z,99.21
2024-05-09T06:33:24.025Z,99.11
2024-05-09T06:34:23.889Z,98.96
2024-05-09T06:35:23.868Z,98.86
2024-05-09T06:36:23.790Z,98.65
2024-05-09T06:37:23.806Z,98.65
2024-05-09T06:38:23.831Z,98.55
2024-05-09T06:39:23.764Z,98.55
2024-05-09T06:40:29.251Z,98.45
2024-05-09T06:41:24.812Z,98.45
2024-05-09T06:42:23.736Z,98.35
2024-05-09T06:43:23.725Z,98.14
2024-05-09T06:44:23.823Z,97.89
2024-05-09T06:45:23.735Z,97.89
2024-05-09T06:46:23.688Z,97.79
2024-05-09T06:47:23.795Z,97.89
2024-05-09T06:48:23.913Z,97.89
2024-05-09T06:49:23.739Z,97.79
2024-05-09T06:50:27.843Z,97.69
2024-05-09T06:51:24.715Z,97.69
2024-05-09T06:52:23.620Z,97.44
2024-05-09T06:53:23.701Z,97.33
2024-05-09T06:54:23.599Z,97.33
2024-05-09T06:55:23.594Z,97.44
2024-05-09T06:56:23.632Z,97.54
2024-05-09T06:57:23.582Z,97.64
2024-05-09T06:58:23.583Z,97.44
2024-05-09T06:59:23.564Z,97.33
2024-05-09T07:00:30.707Z,97.24
2024-05-09T07:01:24.571Z,96.37
2024-05-09T07:02:23.631Z,95.65
2024-05-09T07:03:23.666Z,95.25
2024-05-09T07:04:23.594Z,94.94
2024-05-09T07:05:23.579Z,94.74
2024-05-09T07:06:23.476Z,94.33
2024-05-09T07:07:23.481Z,94.23
2024-05-09T07:08:23.645Z,94.02
2024-05-09T07:09:23.444Z,93.57
2024-05-09T07:10:29.012Z,93.16
2024-05-09T07:11:24.547Z,93.16
2024-05-09T07:12:23.536Z,93.26
2024-05-09T07:13:23.417Z,93.26
2024-05-09T07:14:23.419Z,92.96
2024-05-09T07:15:23.387Z,92.86
2024-05-09T07:16:23.394Z,92.91
2024-05-09T07:17:23.727Z,92.91
2024-05-09T07:18:23.595Z,92.91
2024-05-09T07:19:23.380Z,92.81
2024-05-09T07:20:32.083Z,92.50
2024-05-09T07:21:24.345Z,92.20
2024-05-09T07:22:23.325Z,92.20
2024-05-09T07:23:23.357Z,92.20
2024-05-09T07:24:23.309Z,92.10
2024-05-09T07:25:23.268Z,92.05
2024-05-09T07:26:23.317Z,92.05
2024-05-09T07:27:23.255Z,91.85
2024-05-09T07:28:23.265Z,91.24
2024-05-09T07:29:23.286Z,91.03
2024-05-09T07:30:27.943Z,90.94
2024-05-09T07:31:24.203Z,90.73
2024-05-09T07:32:23.395Z,90.32
2024-05-09T07:33:24.440Z,90.32
2024-05-09T07:34:23.255Z,90.48
2024-05-09T07:35:23.276Z,90.59
2024-05-09T07:36:23.162Z,90.48
2024-05-09T07:37:23.143Z,89.67
2024-05-09T07:38:23.159Z,89.77
2024-05-09T07:39:23.124Z,89.67
2024-05-09T07:40:32.239Z,89.06
2024-05-09T07:41:24.165Z,88.65
2024-05-09T07:42:23.088Z,88.65
2024-05-09T07:43:23.095Z,88.31
2024-05-09T07:44:23.114Z,88.31
2024-05-09T07:45:41.671Z,88.51
2024-05-09T07:47:17.286Z,88.31
2024-05-09T07:48:56.502Z,88.10
2024-05-09T07:53:30.207Z,87.45
2024-05-09T07:54:23.130Z,88.26
2024-05-09T07:55:23.223Z,88.16
2024-05-09T07:56:24.267Z,88.36
2024-05-09T07:57:22.943Z,88.57
2024-05-09T07:58:22.922Z,88.36
2024-05-09T07:59:22.920Z,87.65
2024-05-09T08:00:29.732Z,87.24
2024-05-09T08:01:24.022Z,86.59
2024-05-09T08:02:22.987Z,86.90
2024-05-09T08:03:23.162Z,86.90
2024-05-09T08:04:25.103Z,86.39
2024-05-09T08:05:22.912Z,86.49
2024-05-09T08:06:22.850Z,86.59
2024-05-09T08:07:22.919Z,86.29
2024-05-09T08:08:22.820Z,85.68
2024-05-09T08:09:22.836Z,85.33
2024-05-09T08:10:27.430Z,84.72
2024-05-09T08:11:23.932Z,84.82
2024-05-09T08:12:22.776Z,85.13
2024-05-09T08:13:23.218Z,85.23
2024-05-09T08:14:22.788Z,85.33
2024-05-09T08:15:22.732Z,85.13
2024-05-09T08:16:22.917Z,85.09
2024-05-09T08:17:22.848Z,84.78
2024-05-09T08:18:22.810Z,84.78
2024-05-09T08:19:22.829Z,84.38
2024-05-09T08:20:30.665Z,84.07
2024-05-09T08:21:23.685Z,83.87
2024-05-09T08:22:22.667Z,84.17
2024-05-09T08:23:22.672Z,83.87
2024-05-09T08:24:22.641Z,82.81
2024-05-09T08:25:22.657Z,82.81
2024-05-09T08:26:22.625Z,82.40
2024-05-09T08:27:22.607Z,82.51
2024-05-09T08:28:22.753Z,82.00
2024-05-09T08:29:22.635Z,81.29
2024-05-09T08:30:29.770Z,81.96
2024-05-09T08:31:23.644Z,82.17
2024-05-09T08:32:22.638Z,82.57
2024-05-09T08:33:22.696Z,82.98
2024-05-09T08:34:22.830Z,83.38
2024-05-09T08:35:22.615Z,83.59
2024-05-09T08:36:22.519Z,83.38
2024-05-09T08:37:26.007Z,83.45
2024-05-09T08:38:23.517Z,82.73
2024-05-09T08:39:22.484Z,82.73
2024-05-09T08:40:30.666Z,82.94
2024-05-09T08:41:23.459Z,82.23
2024-05-09T08:42:22.481Z,81.92
2024-05-09T08:43:22.519Z,81.72
2024-05-09T08:44:22.424Z,81.21
2024-05-09T08:45:22.427Z,81.58
2024-05-09T08:46:22.482Z,81.18
2024-05-09T08:47:22.487Z,81.07
2024-05-09T08:48:22.475Z,80.57
2024-05-09T08:49:22.406Z,80.66
2024-05-09T08:50:31.779Z,80.36
2024-05-09T08:51:23.360Z,79.96
2024-05-09T08:52:22.338Z,79.45
2024-05-09T08:53:22.348Z,79.21
2024-05-09T08:54:22.321Z,79.61
2024-05-09T08:55:22.300Z,79.82
2024-05-09T08:56:22.307Z,79.92
2024-05-09T08:57:22.287Z,79.00
2024-05-09T08:58:22.357Z,79.00
2024-05-09T08:59:22.270Z,77.99
2024-05-09T09:00:29.800Z,77.95
2024-05-09T09:01:23.309Z,78.87
2024-05-09T09:02:22.431Z,78.36
2024-05-09T09:03:22.260Z,77.14
2024-05-09T09:04:22.314Z,77.01
2024-05-09T09:05:22.286Z,76.60
2024-05-09T09:06:22.189Z,74.57
2024-05-09T09:07:22.227Z,74.17
2024-05-09T09:08:22.180Z,74.17
2024-05-09T09:09:22.173Z,74.88
2024-05-09T09:10:29.588Z,73.93
2024-05-09T09:11:23.180Z,73.93
2024-05-09T09:12:22.155Z,73.22
2024-05-09T09:13:22.166Z,72.72
2024-05-09T09:14:22.101Z,72.48
2024-05-09T09:15:22.107Z,72.88
2024-05-09T09:16:22.128Z,72.17
2024-05-09T09:17:22.228Z,71.67
2024-05-09T09:18:22.145Z,71.26
2024-05-09T09:19:22.228Z,70.65
2024-05-09T09:20:28.753Z,70.83
2024-05-09T09:21:23.022Z,70.12
2024-05-09T09:22:22.106Z,70.22
2024-05-09T09:23:22.004Z,70.69
2024-05-09T09:24:21.998Z,70.59
2024-05-09T09:25:21.987Z,69.98
2024-05-09T09:26:21.986Z,69.14
2024-05-09T09:27:21.977Z,68.23
2024-05-09T09:28:21.986Z,68.03
2024-05-09T09:29:21.934Z,68.23
2024-05-09T09:30:34.102Z,68.63
2024-05-09T09:31:22.960Z,68.23
2024-05-09T09:32:21.943Z,67.63
2024-05-09T09:33:21.986Z,67.19
2024-05-09T09:34:21.961Z,66.58
2024-05-09T09:35:21.919Z,66.89
2024-05-09T09:36:21.873Z,67.39
2024-05-09T09:37:21.859Z,66.69
2024-05-09T09:38:21.846Z,66.75
2024-05-09T09:39:21.836Z,66.35
2024-05-09T09:40:22.442Z,66.25
2024-05-09T09:41:21.810Z,66.05
2024-05-09T09:42:21.818Z,66.02
2024-05-09T09:43:22.346Z,66.12
2024-05-09T09:44:21.787Z,66.32
2024-05-09T09:45:21.801Z,64.70
2024-05-09T09:46:21.845Z,65.71
2024-05-09T09:47:21.772Z,65.41
2024-05-09T09:48:22.356Z,65.68
2024-05-09T09:49:21.785Z,64.47
2024-05-09T09:50:27.885Z,64.87
2024-05-09T09:51:22.818Z,64.14
2024-05-09T09:52:21.983Z,63.84
2024-05-09T09:53:21.684Z,62.49
2024-05-09T09:54:21.677Z,62.40
2024-05-09T09:55:21.778Z,61.89
2024-05-09T09:56:21.686Z,61.25
2024-05-09T09:57:21.692Z,61.86
2024-05-09T09:58:21.821Z,61.66
2024-05-09T09:59:21.653Z,60.96
2024-05-09T10:00:27.155Z,61.96
2024-05-09T10:01:22.711Z,61.86
2024-05-09T10:02:21.802Z,61.23
2024-05-09T10:03:21.735Z,61.73
2024-05-09T10:04:21.786Z,62.34
2024-05-09T10:05:21.730Z,60.89
2024-05-09T10:06:21.571Z,61.40
2024-05-09T10:07:21.637Z,60.89
2024-05-09T10:08:21.549Z,60.29
2024-05-09T10:09:21.523Z,60.67
2024-05-09T10:10:29.863Z,60.36
2024-05-09T10:11:22.604Z,59.76
2024-05-09T10:12:21.623Z,59.16
2024-05-09T10:13:21.596Z,59.46
2024-05-09T10:14:21.465Z,59.46
2024-05-09T10:15:21.534Z,59.46
2024-05-09T10:16:21.663Z,59.03
2024-05-09T10:17:21.517Z,58.42
2024-05-09T10:18:21.496Z,59.23
2024-05-09T10:19:21.520Z,59.74
2024-05-09T10:20:25.115Z,59.41
2024-05-09T10:21:22.387Z,59.60
2024-05-09T10:22:21.441Z,59.80
2024-05-09T10:23:21.387Z,58.70
2024-05-09T10:24:21.364Z,58.29
2024-05-09T10:25:21.519Z,57.59
2024-05-09T10:26:21.392Z,57.87
2024-05-09T10:27:21.340Z,58.37
2024-05-09T10:28:21.386Z,57.97
2024-05-09T10:29:21.311Z,58.17
2024-05-09T10:30:26.075Z,57.26
2024-05-09T10:31:22.306Z,57.26
2024-05-09T10:32:21.438Z,57.87
2024-05-09T10:33:21.470Z,57.37
2024-05-09T10:34:21.395Z,57.64
2024-05-09T10:35:21.310Z,56.74
2024-05-09T10:36:21.247Z,55.93
2024-05-09T10:37:21.281Z,55.60
2024-05-09T10:38:21.239Z,54.80
2024-05-09T10:39:21.212Z,55.40
2024-05-09T10:40:26.559Z,55.98
2024-05-09T10:41:22.200Z,55.98
2024-05-09T10:42:21.168Z,56.28
2024-05-09T10:43:21.328Z,55.68
2024-05-09T10:44:21.181Z,55.45
2024-05-09T10:45:21.266Z,56.05
2024-05-09T10:46:21.475Z,55.25
2024-05-09T10:47:21.240Z,54.85
2024-05-09T10:48:21.266Z,55.02
2024-05-09T10:49:21.249Z,54.93
2024-05-09T10:50:28.123Z,54.62
2024-05-09T10:51:22.078Z,54.52
2024-05-09T10:52:21.145Z,54.39
2024-05-09T10:53:21.045Z,54.20
2024-05-09T10:54:21.051Z,54.00
2024-05-09T10:55:21.391Z,53.89
2024-05-09T10:56:21.048Z,53.97
2024-05-09T10:57:21.011Z,53.47
2024-05-09T10:58:21.059Z,53.64
2024-05-09T10:59:20.979Z,53.74
2024-05-09T11:00:27.628Z,54.24
2024-05-09T11:01:22.122Z,54.24
2024-05-09T11:02:21.284Z,53.52
2024-05-09T11:03:21.003Z,53.02
2024-05-09T11:04:21.187Z,53.72
2024-05-09T11:05:21.142Z,53.52
2024-05-09T11:06:20.926Z,54.52
2024-05-09T11:07:21.048Z,53.62
2024-05-09T11:08:20.905Z,53.82
2024-05-09T11:09:20.913Z,54.12
2024-05-09T11:10:27.642Z,52.82
2024-05-09T11:11:21.898Z,52.72
2024-05-09T11:12:22.808Z,53.92
2024-05-09T11:13:20.867Z,54.32
2024-05-09T11:14:20.843Z,53.02
2024-05-09T11:15:20.810Z,53.32
2024-05-09T11:16:21.387Z,51.92
2024-05-09T11:17:20.940Z,51.42
2024-05-09T11:18:24.258Z,51.32
2024-05-09T11:19:20.930Z,51.62
2024-05-09T11:20:26.931Z,51.82
2024-05-09T11:21:21.772Z,51.72
2024-05-09T11:22:20.801Z,50.99
2024-05-09T11:23:20.729Z,50.49
2024-05-09T11:24:20.735Z,50.70
2024-05-09T11:25:20.761Z,50.99
2024-05-09T11:26:20.700Z,51.37
2024-05-09T11:27:20.685Z,51.84
2024-05-09T11:28:20.754Z,50.45
2024-05-09T11:29:20.688Z,50.32
2024-05-09T11:30:29.574Z,49.70
2024-05-09T11:31:22.079Z,49.40
2024-05-09T11:32:20.673Z,49.20
2024-05-09T11:33:20.664Z,49.57
2024-05-09T11:34:20.663Z,48.68
2024-05-09T11:35:20.604Z,47.71
2024-05-09T11:36:20.591Z,48.30
2024-05-09T11:37:20.647Z,49.50
2024-05-09T11:38:20.567Z,49.60
2024-05-09T11:39:20.555Z,49.08
2024-05-09T11:40:25.613Z,48.48
2024-05-09T11:41:21.536Z,47.98
2024-05-09T11:42:20.563Z,48.16
2024-05-09T11:43:20.650Z,48.95
2024-05-09T11:44:20.492Z,47.63
2024-05-09T11:45:20.501Z,47.44
2024-05-09T11:46:20.594Z,48.23
2024-05-09T11:47:20.515Z,48.03
2024-05-09T11:48:20.692Z,47.14
2024-05-09T11:49:21.478Z,47.11
2024-05-09T11:50:27.170Z,47.02
2024-05-09T11:51:21.452Z,47.39
2024-05-09T11:52:20.526Z,46.49
2024-05-09T11:53:20.414Z,46.59
2024-05-09T11:54:20.400Z,46.30
2024-05-09T11:55:21.147Z,45.70
2024-05-09T11:56:20.378Z,45.60
2024-05-09T11:57:20.376Z,45.50
2024-05-09T11:58:20.484Z,44.78
2024-05-09T11:59:20.339Z,45.48
2024-05-09T12:00:29.166Z,45.06
2024-05-09T12:01:23.149Z,45.06
2024-05-09T12:02:20.536Z,45.06
2024-05-09T12:03:20.363Z,45.33
2024-05-09T12:04:20.508Z,44.84
2024-05-09T12:05:20.775Z,44.92
2024-05-09T12:06:20.292Z,44.42
2024-05-09T12:07:20.358Z,45.19
2024-05-09T12:08:20.242Z,45.07
2024-05-09T12:09:20.242Z,44.27
2024-05-09T12:10:26.014Z,43.98
2024-05-09T12:11:21.346Z,43.85
2024-05-09T12:12:20.200Z,43.34
2024-05-09T12:13:20.417Z,43.34
2024-05-09T12:14:20.186Z,43.64
2024-05-09T12:15:20.179Z,43.71
2024-05-09T12:16:20.358Z,43.02
2024-05-09T12:17:20.314Z,42.41
2024-05-09T12:18:20.231Z,41.41
2024-05-09T12:19:20.149Z,41.30
2024-05-09T12:20:28.534Z,41.10
2024-05-09T12:21:21.120Z,40.48
2024-05-09T12:22:20.114Z,40.07
2024-05-09T12:23:20.109Z,40.05
2024-05-09T12:24:20.082Z,39.81
2024-05-09T12:25:20.115Z,39.48
2024-05-09T12:26:20.064Z,38.75
2024-05-09T12:27:20.055Z,37.41
2024-05-09T12:28:20.234Z,38.15
2024-05-09T12:29:20.035Z,35.95
2024-05-09T12:30:28.838Z,35.33
2024-05-09T12:31:21.026Z,34.39
2024-05-09T12:32:20.007Z,33.17
2024-05-09T12:33:20.188Z,31.54
2024-05-09T12:34:20.082Z,31.62
2024-05-09T12:35:19.978Z,30.52
2024-05-09T12:36:19.974Z,31.16
2024-05-09T12:37:19.986Z,32.19
2024-05-09T12:38:19.935Z,33.12
2024-05-09T12:39:19.932Z,33.84
2024-05-09T12:40:26.802Z,34.56
2024-05-09T12:41:20.925Z,34.78
2024-05-09T12:42:27.066Z,35.39
2024-05-09T12:43:20.931Z,36.61
2024-05-09T12:44:19.904Z,36.72
2024-05-09T12:45:19.878Z,36.02
2024-05-09T12:46:19.927Z,34.78
2024-05-09T12:47:19.979Z,35.20
2024-05-09T12:48:19.943Z,34.75
2024-05-09T12:49:20.376Z,34.34
2024-05-09T12:50:28.802Z,31.87
2024-05-09T12:51:20.823Z,30.32
2024-05-09T12:52:19.824Z,30.43
2024-05-09T12:53:19.802Z,27.73
2024-05-09T12:54:19.781Z,27.29
2024-05-09T12:55:19.781Z,26.76
2024-05-09T12:56:19.751Z,26.33
2024-05-09T12:57:19.767Z,25.04
2024-05-09T12:58:19.884Z,24.34